Time;durP1;ratioP1;P1;durP2;ratioP2;P2;SDS_P1;SDS_P2;PMS_P1;PMS_P2;Temp;Humidity;BMP_temperature;BMP_pressure;BME280_temperature;BME280_humidity;BME280_pressure;Samples;Min_cycle;Max_cycle;Signal;HPM_P1;HPM_P2
2021/12/16 00:09:00;;;;;;;;;;;;;;;2.95;71.89;96102.59;5079539;28;1291;-48
2021/12/16 00:29:00;;;;;;;;;;;;;;;2.79;72.49;96113.19;5117064;28;972;-48
2021/12/16 00:33:34;;;;;;;;;;;;;;;2.74;72.38;96110.84;5117010;28;1044;-48
2021/12/16 00:36:01;;;;;;;;;;;;;;;2.69;72.74;96120.81;5116654;28;1170;-48
2021/12/16 00:38:27;;;;;;;;;;;;;;;2.54;73.88;96115.50;5115585;28;948;-48
2021/12/16 00:40:55;;;;;;;;;;;;;;;2.45;74.29;96116.03;5116501;28;1422;-48
2021/12/16 00:44:09;;;;;;;;;;;;;;;2.42;73.64;96125.91;5116516;28;1982;-48
2021/12/16 00:46:17;;;;;;;;;;;;;;;2.07;74.48;96126.97;5111030;28;1412;-48
2021/12/16 00:56:33;;;;;;;;;;;;;;;1.86;75.55;96138.66;5116563;27;1027;-48
2021/12/16 00:59:01;;;;;;;;;;;;;;;1.69;75.90;96135.19;5116343;28;1115;-48
2021/12/16 01:07:02;;;;;;;;;;;;;;;1.63;76.91;96129.38;5116347;28;1012;-48
2021/12/16 01:34:40;;;;;;;;;;;;;;;2.11;73.99;96112.66;5115666;28;1026;-48
2021/12/16 01:47:48;;;;;;;;;;;;;;;2.11;73.17;96102.09;5115605;28;970;-48
2021/12/16 01:50:23;;;;;;;;;;;;;;;2.05;73.76;96106.84;5115339;28;1025;-48
2021/12/16 01:55:33;;;;;;;;;;;;;;;2.05;73.83;96107.72;5115856;28;1047;-48
2021/12/16 01:58:12;;;;;;;;;;;;;;;1.92;74.02;96111.97;5115569;28;1067;-48
2021/12/16 02:01:08;;;;;;;;;;;;;;;1.95;73.77;96104.75;5115151;28;1171;-48
2021/12/16 02:03:54;;;;;;;;;;;;;;;1.70;74.43;96099.97;5113374;28;2002;-48
2021/12/16 02:08:52;;;;;;;;;;;;;;;1.47;76.17;96109.13;5115348;28;969;-48
2021/12/16 02:32:45;;;;;;;;;;;;;;;1.15;77.51;96106.38;5114575;28;1064;-47
2021/12/16 02:37:45;;;;;;;;;;;;;;;1.01;77.19;96100.16;5114612;28;981;-48
2021/12/16 02:40:11;;;;;;;;;;;;;;;0.94;77.71;96115.41;5114675;28;961;-48
2021/12/16 02:42:51;;;;;;;;;;;;;;;0.90;77.56;96119.97;5114813;28;1032;-48
2021/12/16 02:50:46;;;;;;;;;;;;;;;0.80;77.96;96115.25;5114403;28;1221;-48
2021/12/16 02:53:12;;;;;;;;;;;;;;;0.82;77.62;96116.06;5114239;28;1050;-48
2021/12/16 02:55:38;;;;;;;;;;;;;;;0.58;78.13;96119.81;5114506;28;1059;-48
2021/12/16 02:58:04;;;;;;;;;;;;;;;0.51;78.02;96123.72;5114536;28;972;-48
2021/12/16 03:00:40;;;;;;;;;;;;;;;0.52;78.30;96124.56;5114138;28;1052;-48
2021/12/16 03:03:06;;;;;;;;;;;;;;;0.53;78.26;96115.72;5113904;28;1913;-48
2021/12/16 03:05:32;;;;;;;;;;;;;;;0.71;78.37;96119.22;5114007;28;1057;-48
2021/12/16 03:07:58;;;;;;;;;;;;;;;0.82;78.51;96116.91;5114074;28;1380;-48
2021/12/16 03:15:56;;;;;;;;;;;;;;;0.24;79.20;96114.53;5115502;28;1024;-48
2021/12/16 03:20:53;;;;;;;;;;;;;;;0.44;79.35;96119.69;5118355;28;1059;-48
2021/12/16 03:28:59;;;;;;;;;;;;;;;0.23;78.46;96118.06;5118375;27;969;-48
2021/12/16 03:36:49;;;;;;;;;;;;;;;0.28;79.32;96122.19;5117714;27;1100;-48
2021/12/16 03:39:16;;;;;;;;;;;;;;;0.26;79.42;96120.56;5118109;28;1040;-48
2021/12/16 03:41:42;;;;;;;;;;;;;;;0.18;78.33;96119.16;5118138;28;1056;-48
2021/12/16 03:44:11;;;;;;;;;;;;;;;-0.29;79.18;96122.25;5117731;28;1992;-48
2021/12/16 03:46:44;;;;;;;;;;;;;;;-0.50;80.16;96123.25;5117711;28;1020;-48
2021/12/16 03:49:10;;;;;;;;;;;;;;;-0.31;80.24;96120.63;5117628;28;1084;-48
2021/12/16 03:51:38;;;;;;;;;;;;;;;-0.10;80.20;96127.50;5117899;28;1067;-48
2021/12/16 03:54:07;;;;;;;;;;;;;;;-0.03;79.72;96121.03;5117852;27;1019;-48
2021/12/16 03:56:34;;;;;;;;;;;;;;;-0.04;79.56;96126.38;5117711;28;1043;-48
2021/12/16 03:59:00;;;;;;;;;;;;;;;-0.05;79.69;96124.69;5117638;28;1043;-48
2021/12/16 04:01:27;;;;;;;;;;;;;;;-0.02;78.88;96121.88;5117652;28;989;-48
2021/12/16 04:03:54;;;;;;;;;;;;;;;-0.32;79.62;96127.69;5117476;28;1906;-48
2021/12/16 04:06:21;;;;;;;;;;;;;;;-0.40;80.13;96127.16;5117729;28;1063;-48
2021/12/16 04:08:47;;;;;;;;;;;;;;;-0.34;80.21;96129.53;5117339;28;1069;-48
2021/12/16 04:11:21;;;;;;;;;;;;;;;-0.24;79.88;96130.78;5117307;28;1061;-48
2021/12/16 04:13:56;;;;;;;;;;;;;;;-0.34;79.65;96123.41;5117366;28;1040;-48
2021/12/16 04:16:23;;;;;;;;;;;;;;;-0.27;80.00;96127.44;5117367;28;969;-48
2021/12/16 04:18:49;;;;;;;;;;;;;;;-0.18;79.98;96120.94;5116974;27;1037;-48
2021/12/16 04:21:19;;;;;;;;;;;;;;;-0.04;80.02;96123.75;5117323;28;1039;-48
2021/12/16 04:23:46;;;;;;;;;;;;;;;0.04;79.60;96131.25;5116955;28;1902;-48
2021/12/16 04:26:13;;;;;;;;;;;;;;;-0.18;78.73;96121.78;5116758;28;1063;-48
2021/12/16 04:28:39;;;;;;;;;;;;;;;-0.16;79.22;96129.59;5116938;28;1051;-48
2021/12/16 04:31:05;;;;;;;;;;;;;;;-0.12;79.26;96118.84;5116852;28;1393;-48
2021/12/16 04:33:31;;;;;;;;;;;;;;;-0.17;80.20;96123.50;5117171;28;973;-48
2021/12/16 04:35:57;;;;;;;;;;;;;;;-0.33;79.21;96118.06;5116652;28;1095;-48
2021/12/16 04:38:23;;;;;;;;;;;;;;;-0.41;78.94;96120.22;5116765;28;1895;-48
2021/12/16 04:40:49;;;;;;;;;;;;;;;-0.56;79.02;96120.91;5116954;28;985;-48
2021/12/16 04:43:20;;;;;;;;;;;;;;;-0.63;79.46;96122.97;5116779;28;1914;-48
2021/12/16 04:45:47;;;;;;;;;;;;;;;-0.64;79.57;96124.75;5116570;28;1050;-48
2021/12/16 04:48:13;;;;;;;;;;;;;;;-0.61;79.27;96121.97;5116755;28;989;-48
2021/12/16 04:50:39;;;;;;;;;;;;;;;-0.53;80.14;96126.00;5116427;28;1040;-48
2021/12/16 04:53:06;;;;;;;;;;;;;;;-0.44;79.22;96130.84;5116794;28;969;-48
2021/12/16 04:55:32;;;;;;;;;;;;;;;-0.43;78.73;96130.78;5116749;28;1055;-48
2021/12/16 04:57:58;;;;;;;;;;;;;;;-0.39;78.84;96123.63;5116325;28;1032;-48
2021/12/16 05:00:25;;;;;;;;;;;;;;;-0.57;79.21;96132.34;5116247;28;998;-48
2021/12/16 05:02:51;;;;;;;;;;;;;;;-0.73;80.08;96125.16;5116515;28;1076;-48
2021/12/16 05:05:17;;;;;;;;;;;;;;;-0.67;79.85;96126.66;5116182;28;1953;-48
2021/12/16 05:07:47;;;;;;;;;;;;;;;-0.68;79.82;96117.94;5116512;28;969;-48
2021/12/16 05:10:14;;;;;;;;;;;;;;;-0.66;80.21;96118.69;5116146;28;1080;-48
2021/12/16 05:12:42;;;;;;;;;;;;;;;-0.71;79.33;96122.47;5115997;28;1057;-48
2021/12/16 05:15:11;;;;;;;;;;;;;;;-0.84;79.47;96122.16;5115764;28;1873;-48
2021/12/16 05:17:47;;;;;;;;;;;;;;;-0.91;79.88;96124.22;5116328;28;1027;-48
2021/12/16 05:20:16;;;;;;;;;;;;;;;-1.02;79.73;96123.81;5116008;28;1115;-48
2021/12/16 05:26:02;;;;;;;;;;;;;;;-0.95;80.53;96125.22;5116145;28;957;-48
2021/12/16 05:28:16;;;;;;;;;;;;;;;-0.72;80.31;96124.25;5115480;28;1356;-48
2021/12/16 05:30:42;;;;;;;;;;;;;;;-0.58;79.73;96123.59;5115539;28;1398;-48
2021/12/16 05:33:08;;;;;;;;;;;;;;;-0.72;78.50;96129.50;5115714;28;1988;-48
2021/12/16 05:35:35;;;;;;;;;;;;;;;-0.93;78.30;96133.03;5115683;28;1219;-48
2021/12/16 05:38:01;;;;;;;;;;;;;;;-1.36;79.31;96129.66;5114788;28;1877;-48
2021/12/16 05:40:28;;;;;;;;;;;;;;;-1.36;80.34;96137.53;5115760;28;1056;-48
2021/12/16 05:42:55;;;;;;;;;;;;;;;-1.28;80.25;96138.06;5115793;28;976;-48
2021/12/16 05:45:23;;;;;;;;;;;;;;;-1.07;79.92;96136.28;5115435;28;1906;-48
2021/12/16 05:47:53;;;;;;;;;;;;;;;-1.01;79.12;96134.22;5115702;28;1047;-48
2021/12/16 05:50:20;;;;;;;;;;;;;;;-1.04;79.46;96131.75;5115546;28;1053;-48
2021/12/16 05:52:46;;;;;;;;;;;;;;;-0.88;79.66;96131.94;5115283;28;1306;-48
2021/12/16 05:55:12;;;;;;;;;;;;;;;-0.74;79.89;96127.84;5115559;28;979;-48
2021/12/16 05:57:39;;;;;;;;;;;;;;;-0.70;78.14;96135.53;5115476;28;1008;-48
2021/12/16 06:00:07;;;;;;;;;;;;;;;-0.80;77.78;96137.72;5115228;28;1008;-48
2021/12/16 06:02:33;;;;;;;;;;;;;;;-0.85;78.23;96141.47;5115391;28;1039;-48
2021/12/16 06:04:59;;;;;;;;;;;;;;;-0.84;78.18;96136.13;5115426;28;1909;-48
2021/12/16 06:07:25;;;;;;;;;;;;;;;-1.07;78.42;96138.91;5115296;28;964;-48
2021/12/16 06:09:51;;;;;;;;;;;;;;;-1.24;79.53;96139.63;5114946;28;1042;-48
2021/12/16 06:12:17;;;;;;;;;;;;;;;-1.28;79.92;96145.94;5115206;28;1388;-48
2021/12/16 06:28:12;;;;;;;;;;;;;;;-0.54;78.85;96146.19;5114800;28;1062;-48
2021/12/16 06:30:39;;;;;;;;;;;;;;;-0.48;78.92;96145.06;5114948;28;1189;-48
2021/12/16 06:33:07;;;;;;;;;;;;;;;0.09;77.58;96148.53;5114731;28;976;-48
2021/12/16 06:38:55;;;;;;;;;;;;;;;6.89;55.18;96142.63;3730470;28;2074;-48
2021/12/16 06:41:22;;;;;;;;;;;;;;;7.78;52.12;96144.66;5114444;28;2053;-49
2021/12/16 06:43:52;;;;;;;;;;;;;;;9.34;47.91;96140.97;5114250;28;1990;-49
2021/12/16 06:46:20;;;;;;;;;;;;;;;10.73;44.87;96148.53;5114716;28;984;-48
2021/12/16 06:48:55;;;;;;;;;;;;;;;11.50;42.86;96148.75;5114446;28;1039;-48
2021/12/16 06:51:22;;;;;;;;;;;;;;;9.35;47.21;96142.69;5114279;28;1005;-49
2021/12/16 06:54:03;;;;;;;;;;;;;;;8.93;47.69;96137.25;5114414;28;989;-49
2021/12/16 06:56:37;;;;;;;;;;;;;;;5.77;56.85;96139.09;5114413;28;986;-48
2021/12/16 06:59:22;;;;;;;;;;;;;;;3.99;62.77;96137.66;5129979;27;969;-48
2021/12/16 07:02:03;;;;;;;;;;;;;;;3.24;66.03;96135.19;5114484;28;1269;-49
2021/12/16 07:04:29;;;;;;;;;;;;;;;2.65;68.34;96132.50;5114114;28;1909;-49
2021/12/16 07:06:55;;;;;;;;;;;;;;;2.36;69.89;96137.66;5113191;28;1055;-48
2021/12/16 07:09:21;;;;;;;;;;;;;;;2.17;71.35;96132.56;5114042;28;1113;-49
2021/12/16 07:11:51;;;;;;;;;;;;;;;2.05;71.42;96136.75;5113864;28;1031;-49
2021/12/16 07:14:19;;;;;;;;;;;;;;;2.14;72.04;96138.00;5114207;28;985;-49
2021/12/16 07:16:48;;;;;;;;;;;;;;;2.06;71.90;96148.13;5114178;28;1059;-49
2021/12/16 07:19:14;;;;;;;;;;;;;;;1.92;72.39;96138.34;5112925;28;1047;-49
2021/12/16 07:21:40;;;;;;;;;;;;;;;2.05;72.06;96138.50;5113961;28;1235;-49
2021/12/16 07:24:07;;;;;;;;;;;;;;;2.14;72.31;96133.59;5114175;28;1989;-48
2021/12/16 07:26:34;;;;;;;;;;;;;;;2.11;72.00;96123.19;5113985;28;1023;-48
2021/12/16 07:29:01;;;;;;;;;;;;;;;2.37;71.83;96138.50;5113964;28;1363;-48
2021/12/16 07:31:30;;;;;;;;;;;;;;;2.39;71.72;96136.63;5114062;28;979;-48
2021/12/16 07:33:57;;;;;;;;;;;;;;;2.57;70.77;96143.50;5114178;28;1040;-48
2021/12/16 07:36:24;;;;;;;;;;;;;;;2.62;71.04;96143.22;5113860;28;1124;-48
2021/12/16 07:38:50;;;;;;;;;;;;;;;2.69;70.76;96149.84;5113501;28;1344;-48
2021/12/16 07:41:21;;;;;;;;;;;;;;;2.80;69.40;96143.97;5113659;28;1028;-48
2021/12/16 07:44:09;;;;;;;;;;;;;;;3.02;68.81;96143.56;5113554;28;1902;-48
2021/12/16 07:46:36;;;;;;;;;;;;;;;3.13;68.27;96142.00;5114121;28;936;-49
2021/12/16 07:49:04;;;;;;;;;;;;;;;3.08;68.37;96144.03;5114022;28;972;-48
2021/12/16 07:51:30;;;;;;;;;;;;;;;3.08;68.40;96144.03;5113573;28;1047;-48
2021/12/16 07:53:56;;;;;;;;;;;;;;;2.97;69.45;96149.09;5113848;28;988;-49
2021/12/16 07:56:22;;;;;;;;;;;;;;;2.95;69.51;96150.16;5113478;28;1100;-48
2021/12/16 07:58:48;;;;;;;;;;;;;;;2.90;70.86;96147.75;5113823;28;985;-49
2021/12/16 08:01:14;;;;;;;;;;;;;;;2.88;69.08;96150.50;5114854;28;1084;-49
2021/12/16 08:03:42;;;;;;;;;;;;;;;2.78;69.20;96149.34;5117589;28;1902;-49
2021/12/16 08:06:11;;;;;;;;;;;;;;;2.49;70.02;96141.31;5117634;28;1048;-49
2021/12/16 08:08:37;;;;;;;;;;;;;;;2.61;68.83;96141.53;5117232;28;1123;-49
2021/12/16 08:11:04;;;;;;;;;;;;;;;2.55;69.72;96137.47;5117312;28;1162;-49
2021/12/16 08:13:30;;;;;;;;;;;;;;;2.56;70.94;96138.31;5117309;28;1051;-49
2021/12/16 08:15:56;;;;;;;;;;;;;;;2.74;68.80;96139.88;5117263;28;992;-49
2021/12/16 08:18:22;;;;;;;;;;;;;;;2.81;69.34;96138.59;5117523;27;1047;-49
2021/12/16 08:20:48;;;;;;;;;;;;;;;2.84;68.25;96137.56;5117051;28;1037;-49
2021/12/16 08:23:14;;;;;;;;;;;;;;;2.85;69.02;96142.75;5117080;28;1909;-49
2021/12/16 08:25:40;;;;;;;;;;;;;;;2.88;69.19;96134.66;5116968;28;1057;-49
2021/12/16 08:28:06;;;;;;;;;;;;;;;3.02;68.21;96141.78;5117181;28;1012;-49
2021/12/16 08:30:37;;;;;;;;;;;;;;;3.07;69.50;96145.00;5116886;28;1409;-49
2021/12/16 08:33:07;;;;;;;;;;;;;;;3.05;67.61;96146.00;5117222;28;1001;-49
2021/12/16 08:35:33;;;;;;;;;;;;;;;3.11;69.02;96143.00;5116848;28;1125;-49
2021/12/16 08:37:59;;;;;;;;;;;;;;;3.12;68.28;96145.56;5116875;28;989;-49
2021/12/16 08:40:26;;;;;;;;;;;;;;;3.17;68.67;96141.78;5115483;28;1096;-49
2021/12/16 08:42:52;;;;;;;;;;;;;;;3.19;68.87;96151.34;5116729;28;1039;-48
2021/12/16 08:45:23;;;;;;;;;;;;;;;3.27;67.64;96148.25;5116620;28;1905;-49
2021/12/16 08:47:49;;;;;;;;;;;;;;;3.24;67.54;96149.25;5116622;28;1053;-48
2021/12/16 08:50:16;;;;;;;;;;;;;;;3.32;67.76;96144.38;5116807;28;1043;-49
2021/12/16 08:52:42;;;;;;;;;;;;;;;3.40;66.94;96149.19;5116550;28;1044;-49
2021/12/16 08:55:09;;;;;;;;;;;;;;;3.64;67.46;96144.22;5116665;28;1043;-49
2021/12/16 08:57:35;;;;;;;;;;;;;;;3.70;66.51;96143.00;5115192;28;989;-48
2021/12/16 09:00:04;;;;;;;;;;;;;;;3.84;65.87;96145.59;5116376;28;1104;-48
2021/12/16 09:02:30;;;;;;;;;;;;;;;3.77;65.74;96148.72;5116492;28;1206;-48
2021/12/16 09:04:56;;;;;;;;;;;;;;;3.90;64.81;96141.72;5116534;28;1988;-48
2021/12/16 09:07:22;;;;;;;;;;;;;;;4.47;64.44;96140.75;5116375;28;1068;-48
2021/12/16 09:09:48;;;;;;;;;;;;;;;6.18;59.92;96134.47;5116338;28;1009;-48
2021/12/16 09:12:48;;;;;;;;;;;;;;;7.36;55.37;96132.84;5115173;28;965;-49
2021/12/16 09:15:04;;;;;;;;;;;;;;;7.86;53.72;96124.59;5115830;28;1523;-49
2021/12/16 09:17:31;;;;;;;;;;;;;;;9.00;50.04;96121.63;5115962;28;1021;-49
2021/12/16 09:19:57;;;;;;;;;;;;;;;10.94;46.48;96118.16;5114801;28;1049;-49
2021/12/16 09:22:23;;;;;;;;;;;;;;;14.19;40.15;96114.31;5115794;28;1045;-48
2021/12/16 09:24:50;;;;;;;;;;;;;;;16.75;34.18;96110.72;5116165;28;1982;-46
2021/12/16 09:27:17;;;;;;;;;;;;;;;17.78;31.12;96112.28;5116066;28;1073;-46
2021/12/16 09:29:43;;;;;;;;;;;;;;;18.85;29.47;96100.34;5116462;28;1416;-46
2021/12/16 09:32:09;;;;;;;;;;;;;;;19.22;28.70;96098.47;5115755;28;1077;-46
2021/12/16 09:34:36;;;;;;;;;;;;;;;18.65;29.63;96100.06;5116017;27;973;-46
2021/12/16 09:37:03;;;;;;;;;;;;;;;17.70;29.58;96094.25;5115860;28;972;-46
2021/12/16 09:39:29;;;;;;;;;;;;;;;17.42;31.04;96099.38;5115470;28;1087;-46
2021/12/16 09:41:57;;;;;;;;;;;;;;;17.48;29.58;96095.94;5115794;28;972;-46
2021/12/16 09:44:24;;;;;;;;;;;;;;;18.96;28.64;96080.03;5115643;28;1980;-46
2021/12/16 09:46:52;;;;;;;;;;;;;;;20.49;26.06;96086.81;5115691;28;1016;-47
2021/12/16 09:49:19;;;;;;;;;;;;;;;22.38;24.84;96094.16;5115770;28;973;-47
2021/12/16 09:51:46;;;;;;;;;;;;;;;23.45;22.85;96090.22;5115208;28;1143;-47
2021/12/16 09:54:14;;;;;;;;;;;;;;;23.81;22.39;96084.13;5115469;28;961;-47
2021/12/16 09:56:41;;;;;;;;;;;;;;;20.23;24.73;96079.34;5114056;28;1058;-47
2021/12/16 09:59:10;;;;;;;;;;;;;;;17.18;30.28;96070.66;5115466;28;957;-46
2021/12/16 10:01:36;;;;;;;;;;;;;;;12.62;37.82;96068.38;5115458;28;1024;-46
2021/12/16 10:04:03;;;;;;;;;;;;;;;11.34;39.89;96066.31;5114997;28;1990;-46
2021/12/16 10:06:31;;;;;;;;;;;;;;;10.00;43.21;96057.00;5114942;28;1029;-46
2021/12/16 10:09:00;;;;;;;;;;;;;;;9.39;45.89;96063.19;5115180;28;983;-46
2021/12/16 10:11:27;;;;;;;;;;;;;;;8.50;47.65;96054.63;5114935;28;1039;-46
2021/12/16 10:19:15;;;;;;;;;;;;;;;6.91;53.44;96042.34;5115089;28;978;-49
2021/12/16 10:21:42;;;;;;;;;;;;;;;6.69;54.25;96038.63;5115079;28;972;-49
2021/12/16 10:24:22;;;;;;;;;;;;;;;6.32;56.22;96036.06;5114284;28;1905;-49
2021/12/16 10:27:04;;;;;;;;;;;;;;;6.33;55.24;96035.09;5114862;28;1009;-49
2021/12/16 10:29:37;;;;;;;;;;;;;;;5.95;56.99;96025.47;5115045;28;1351;-49
2021/12/16 10:32:03;;;;;;;;;;;;;;;5.82;57.56;96037.91;5114907;28;1039;-49
2021/12/16 10:34:30;;;;;;;;;;;;;;;5.71;58.25;96032.50;5114419;28;981;-49
2021/12/16 10:36:57;;;;;;;;;;;;;;;5.77;57.16;96032.09;5115086;28;976;-48
2021/12/16 10:39:25;;;;;;;;;;;;;;;5.86;57.86;96024.31;5114423;28;1103;-49
2021/12/16 10:41:52;;;;;;;;;;;;;;;5.80;58.13;96024.72;5114630;28;1040;-49
2021/12/16 10:44:33;;;;;;;;;;;;;;;5.57;59.26;96015.78;5114544;28;1901;-49
2021/12/16 10:47:01;;;;;;;;;;;;;;;5.52;59.69;96015.28;5114409;28;1031;-49
2021/12/16 10:49:34;;;;;;;;;;;;;;;5.58;57.31;96014.81;5114146;28;961;-49
2021/12/16 10:52:02;;;;;;;;;;;;;;;5.75;59.44;96016.28;5114480;28;1035;-48
2021/12/16 10:54:37;;;;;;;;;;;;;;;5.73;58.22;96012.00;5114373;28;1039;-48
2021/12/16 10:57:09;;;;;;;;;;;;;;;5.86;57.26;96002.22;5114140;28;1009;-49
2021/12/16 10:59:38;;;;;;;;;;;;;;;5.60;57.68;96002.31;5114139;28;1093;-48
2021/12/16 11:02:08;;;;;;;;;;;;;;;5.60;58.46;96001.47;5114449;28;1072;-49
2021/12/16 11:04:34;;;;;;;;;;;;;;;5.71;58.52;95990.06;5113883;28;1929;-49
2021/12/16 11:07:06;;;;;;;;;;;;;;;5.63;58.56;95990.59;5114374;28;1005;-49
2021/12/16 11:09:32;;;;;;;;;;;;;;;5.89;58.22;95991.38;5114421;28;977;-49
2021/12/16 11:12:13;;;;;;;;;;;;;;;5.94;55.84;95988.38;5113975;28;1009;-49
2021/12/16 11:14:41;;;;;;;;;;;;;;;5.97;55.84;95989.03;5114344;28;1048;-49
2021/12/16 11:17:09;;;;;;;;;;;;;;;5.96;56.00;95982.06;5114047;28;1020;-48
2021/12/16 11:19:44;;;;;;;;;;;;;;;6.03;55.38;95977.13;5114016;28;1028;-48
2021/12/16 11:22:12;;;;;;;;;;;;;;;5.87;56.29;95986.19;5113976;28;1131;-48
2021/12/16 11:24:38;;;;;;;;;;;;;;;5.93;55.50;95973.44;5113855;28;1910;-48
2021/12/16 11:27:21;;;;;;;;;;;;;;;5.90;55.72;95982.47;5114104;28;976;-48
2021/12/16 11:29:47;;;;;;;;;;;;;;;5.97;55.22;95972.28;5113816;28;1421;-49
2021/12/16 11:32:32;;;;;;;;;;;;;;;6.12;56.09;95975.59;5113739;28;1305;-48
2021/12/16 11:34:58;;;;;;;;;;;;;;;6.24;57.39;95975.56;5113816;28;977;-48
2021/12/16 11:37:24;;;;;;;;;;;;;;;6.42;57.61;95978.63;5117065;28;1051;-49
2021/12/16 11:39:50;;;;;;;;;;;;;;;6.30;55.19;95968.94;5117843;28;1108;-49
2021/12/16 11:42:16;;;;;;;;;;;;;;;6.26;55.67;95962.16;5117814;28;1115;-48
2021/12/16 11:44:42;;;;;;;;;;;;;;;6.04;56.71;95962.91;5117918;28;1906;-49
2021/12/16 11:47:22;;;;;;;;;;;;;;;5.98;56.97;95955.41;5117676;28;1032;-49
2021/12/16 11:49:50;;;;;;;;;;;;;;;6.01;55.34;95958.66;5117726;28;1048;-48
2021/12/16 11:52:20;;;;;;;;;;;;;;;5.98;57.23;95956.22;5117943;28;1039;-49
2021/12/16 11:54:49;;;;;;;;;;;;;;;6.05;57.15;95953.97;5117873;28;1036;-49
2021/12/16 11:57:25;;;;;;;;;;;;;;;6.16;57.71;95956.66;5117509;28;1056;-49
2021/12/16 11:59:54;;;;;;;;;;;;;;;6.11;56.55;95947.34;5117602;27;1045;-49
2021/12/16 12:02:20;;;;;;;;;;;;;;;5.87;56.82;95953.50;5117862;28;1077;-49
2021/12/16 12:04:46;;;;;;;;;;;;;;;5.73;58.59;95948.31;5117632;28;1984;-49
2021/12/16 12:07:13;;;;;;;;;;;;;;;5.69;59.22;95950.34;5117609;28;965;-49
2021/12/16 12:09:41;;;;;;;;;;;;;;;5.60;58.58;95948.41;5116197;28;1100;-49
2021/12/16 12:12:07;;;;;;;;;;;;;;;5.51;58.87;95946.41;5117241;28;1866;-48
2021/12/16 12:14:35;;;;;;;;;;;;;;;5.52;59.57;95945.44;5117352;28;1052;-48
2021/12/16 12:17:03;;;;;;;;;;;;;;;5.57;59.12;95944.13;5116369;28;1055;-48
2021/12/16 12:19:29;;;;;;;;;;;;;;;5.70;59.32;95944.09;5117471;28;1047;-48
2021/12/16 12:21:57;;;;;;;;;;;;;;;5.79;60.04;95937.28;5117297;28;1028;-48
2021/12/16 12:24:26;;;;;;;;;;;;;;;5.73;58.61;95938.59;5117325;28;1909;-48
2021/12/16 12:27:18;;;;;;;;;;;;;;;5.76;58.57;95943.66;5117262;28;1004;-49
2021/12/16 12:29:50;;;;;;;;;;;;;;;5.61;58.75;95944.78;5113946;28;1825;-48
2021/12/16 12:32:28;;;;;;;;;;;;;;;5.68;60.04;95936.25;5116885;28;1030;-48
2021/12/16 12:34:59;;;;;;;;;;;;;;;5.74;58.94;95942.06;5116937;28;1042;-48
2021/12/16 12:37:27;;;;;;;;;;;;;;;5.70;58.89;95937.97;5116991;28;1371;-48
2021/12/16 12:39:55;;;;;;;;;;;;;;;5.77;57.70;95934.75;5116459;28;1132;-49
2021/12/16 12:42:21;;;;;;;;;;;;;;;5.72;58.55;95936.03;5117029;28;981;-48
2021/12/16 12:44:47;;;;;;;;;;;;;;;5.75;58.31;95939.31;5116822;28;1898;-48
2021/12/16 12:47:18;;;;;;;;;;;;;;;5.64;58.63;95934.78;5116610;28;1032;-49
2021/12/16 12:49:44;;;;;;;;;;;;;;;5.54;58.27;95928.47;5116635;28;1071;-48
2021/12/16 12:52:15;;;;;;;;;;;;;;;5.53;58.51;95925.91;5116865;28;964;-49
2021/12/16 12:54:44;;;;;;;;;;;;;;;5.46;58.76;95922.84;5116676;28;1051;-49
2021/12/16 12:57:28;;;;;;;;;;;;;;;5.45;59.52;95923.81;5116471;28;1045;-49
2021/12/16 12:59:55;;;;;;;;;;;;;;;5.43;59.12;95923.09;5116263;28;1041;-47
2021/12/16 13:02:30;;;;;;;;;;;;;;;5.37;59.06;95926.16;5116454;28;984;-48
2021/12/16 13:05:00;;;;;;;;;;;;;;;5.22;59.65;95928.13;5116177;28;1988;-48
2021/12/16 13:07:32;;;;;;;;;;;;;;;5.12;61.00;95929.72;5116283;28;1202;-48
2021/12/16 13:10:01;;;;;;;;;;;;;;;5.05;61.15;95932.81;5116473;28;1039;-48
2021/12/16 13:12:36;;;;;;;;;;;;;;;5.00;60.35;95934.09;5116386;28;1059;-48
2021/12/16 13:15:19;;;;;;;;;;;;;;;5.00;60.65;95934.09;5114797;28;1053;-49
2021/12/16 13:23:30;;;;;;;;;;;;;;;5.08;60.93;95939.69;5116285;28;973;-49
2021/12/16 13:28:47;;;;;;;;;;;;;;;5.10;60.52;95940.44;5115692;28;933;-48
2021/12/16 13:31:35;;;;;;;;;;;;;;;4.98;61.49;95942.16;5115856;28;1061;-49
2021/12/16 13:34:02;;;;;;;;;;;;;;;5.04;61.43;95940.88;5115787;28;984;-49
2021/12/16 13:36:39;;;;;;;;;;;;;;;5.03;61.30;95941.84;5115652;28;1111;-49
2021/12/16 13:39:15;;;;;;;;;;;;;;;5.04;62.16;95940.88;5114203;28;1324;-49
2021/12/16 13:42:08;;;;;;;;;;;;;;;5.10;61.91;95943.06;5115611;28;1033;-48
2021/12/16 13:44:45;;;;;;;;;;;;;;;5.09;62.21;95950.19;5112767;28;2005;-49
2021/12/16 14:06:33;;;;;;;;;;;;;;;4.96;62.64;95946.72;5115439;28;989;-49
2021/12/16 14:09:11;;;;;;;;;;;;;;;4.89;62.40;95945.44;5115137;27;1040;-48
2021/12/16 14:14:41;;;;;;;;;;;;;;;4.91;63.62;95954.13;5114960;27;1111;-49
2021/12/16 14:17:15;;;;;;;;;;;;;;;5.03;64.36;95944.50;5115301;28;1040;-48
2021/12/16 14:25:30;;;;;;;;;;;;;;;5.08;63.47;95958.25;5114799;28;1909;-49
2021/12/16 14:36:16;;;;;;;;;;;;;;;5.09;63.13;95952.84;5114728;28;964;-49
2021/12/16 14:41:38;;;;;;;;;;;;;;;4.94;63.95;95955.72;5114275;28;1060;-49
2021/12/16 14:46:44;;;;;;;;;;;;;;;4.84;63.04;95964.31;5114579;28;1040;-49
2021/12/16 14:49:10;;;;;;;;;;;;;;;4.85;63.44;95963.34;5114715;28;988;-49
2021/12/16 14:51:37;;;;;;;;;;;;;;;4.84;65.14;95966.97;5114175;28;1045;-49
2021/12/16 14:54:03;;;;;;;;;;;;;;;4.80;66.17;95977.88;5114449;28;1048;-49
2021/12/16 14:56:32;;;;;;;;;;;;;;;4.84;65.02;95976.72;5114501;28;1016;-49
2021/12/16 14:59:06;;;;;;;;;;;;;;;4.76;64.59;95974.59;5114420;28;1015;-49
2021/12/16 15:01:34;;;;;;;;;;;;;;;4.80;65.62;95970.78;5114206;28;1052;-49
2021/12/16 15:04:01;;;;;;;;;;;;;;;4.79;66.23;95974.38;5114248;28;2008;-49
2021/12/16 15:06:33;;;;;;;;;;;;;;;4.77;66.19;95980.75;5114089;28;1052;-49
2021/12/16 15:11:55;;;;;;;;;;;;;;;4.66;67.53;95977.00;5114454;28;1035;-49
2021/12/16 15:14:35;;;;;;;;;;;;;;;4.53;69.01;95978.78;5114386;28;1276;-49
2021/12/16 15:44:32;;;;;;;;;;;;;;;3.98;70.76;95999.19;5114003;28;1906;-49
2021/12/16 15:46:59;;;;;;;;;;;;;;;3.91;70.45;95996.13;5114050;28;1013;-49
2021/12/16 15:49:25;;;;;;;;;;;;;;;4.02;70.71;95995.44;5114288;28;1035;-49
2021/12/16 15:51:52;;;;;;;;;;;;;;;3.90;70.77;95996.22;5113588;28;1167;-49
2021/12/16 15:54:19;;;;;;;;;;;;;;;3.89;70.59;95999.81;5113440;28;1040;-49
2021/12/16 15:56:47;;;;;;;;;;;;;;;3.66;71.59;96003.91;5113946;28;1012;-49
2021/12/16 15:59:15;;;;;;;;;;;;;;;3.51;71.46;96000.47;5113721;28;1092;-49
2021/12/16 16:01:43;;;;;;;;;;;;;;;3.47;71.97;96004.22;5113896;28;993;-49
2021/12/16 16:04:17;;;;;;;;;;;;;;;3.55;71.18;96004.63;5113458;28;2020;-49
2021/12/16 16:06:48;;;;;;;;;;;;;;;3.64;70.47;96006.69;5113563;28;1997;-49
2021/12/16 16:09:15;;;;;;;;;;;;;;;3.83;69.68;96008.13;5113644;28;1039;-49
2021/12/16 16:11:45;;;;;;;;;;;;;;;3.77;69.96;96016.47;5113776;28;965;-49
2021/12/16 16:14:11;;;;;;;;;;;;;;;3.68;70.31;96015.25;5113761;28;965;-49
2021/12/16 16:16:44;;;;;;;;;;;;;;;3.72;70.67;96012.31;5113390;28;1076;-49
2021/12/16 16:19:13;;;;;;;;;;;;;;;3.62;71.27;96010.34;5113469;28;1039;-49
2021/12/16 16:21:40;;;;;;;;;;;;;;;3.57;71.43;96015.09;5113781;28;984;-49
2021/12/16 16:24:17;;;;;;;;;;;;;;;3.44;71.67;96022.97;5116946;28;1973;-49
2021/12/16 16:26:43;;;;;;;;;;;;;;;3.60;70.88;96026.31;5117354;28;1059;-49
2021/12/16 16:29:12;;;;;;;;;;;;;;;3.57;71.35;96026.53;5117145;28;1169;-49
2021/12/16 16:31:38;;;;;;;;;;;;;;;3.64;69.27;96035.78;5117246;28;1009;-49
2021/12/16 16:34:33;;;;;;;;;;;;;;;3.64;69.99;96034.91;5116886;28;1028;-49
2021/12/16 16:37:01;;;;;;;;;;;;;;;3.53;71.02;96038.25;5103250;28;2116;-49
2021/12/16 16:39:32;;;;;;;;;;;;;;;3.59;71.47;96034.38;5116562;28;1269;-49
2021/12/16 16:42:04;;;;;;;;;;;;;;;3.65;70.53;96042.75;5116747;28;1065;-49
2021/12/16 16:44:31;;;;;;;;;;;;;;;3.70;70.16;96039.81;5115467;28;1901;-49
2021/12/16 16:47:08;;;;;;;;;;;;;;;3.76;69.81;96042.06;5115487;28;1112;-49
2021/12/16 16:49:42;;;;;;;;;;;;;;;3.87;68.30;96044.03;5116976;28;1043;-49
2021/12/16 16:52:11;;;;;;;;;;;;;;;3.99;67.06;96039.75;5116720;27;1051;-49
2021/12/16 16:54:39;;;;;;;;;;;;;;;3.99;67.47;96039.75;5116823;28;1047;-48
2021/12/16 16:57:17;;;;;;;;;;;;;;;3.99;67.29;96032.66;5116688;28;1036;-49
2021/12/16 16:59:44;;;;;;;;;;;;;;;3.89;67.73;96034.22;5116661;28;1040;-49
2021/12/16 17:02:16;;;;;;;;;;;;;;;4.01;67.08;96030.75;5116396;28;1140;-49
2021/12/16 17:04:44;;;;;;;;;;;;;;;3.92;66.98;96028.72;5116430;28;1906;-48
2021/12/16 17:07:11;;;;;;;;;;;;;;;3.87;66.88;96030.78;5116337;28;1048;-49
2021/12/16 17:09:39;;;;;;;;;;;;;;;3.88;67.17;96030.69;5116163;28;1141;-49
2021/12/16 17:12:08;;;;;;;;;;;;;;;4.03;66.58;96031.50;5116193;28;1060;-49
2021/12/16 17:14:38;;;;;;;;;;;;;;;4.09;66.33;96028.47;5116471;28;1021;-49